Wednesday, November 22, 2017, 4:12 AM EST
Back to Local

KFYJ, West Point, Middle Peninsula Regional Airport

Location: Shacklefords, VA, United States Lat: 37.521
Local Time: 4:12 AM EST ( 9:12 GMT) Lon: -76.764
Time Zone: US/Eastern Elev: 22 ft

Show me the last for .
Show Decoded

2017-11-22 03:35 METAR KFYJ 220835Z AUTO 00000KT 1 1/4SM BKN100 11/11 A2994 RMK AO2 VIS 1/2V5
                 T01100105 =
2017-11-22 03:15 METAR KFYJ 220815Z AUTO 00000KT 3SM SCT043 11/10 A2995 RMK AO2 T01100103 =
2017-11-22 02:55 METAR KFYJ 220755Z AUTO 00000KT 7SM SCT043 SCT070 11/11 A2996 RMK AO2 T01120105
                 =
2017-11-22 02:35 METAR KFYJ 220735Z AUTO 00000KT 10SM SCT065 BKN095 12/11 A2997 RMK AO2 T01210109
                 =
2017-11-22 02:15 METAR KFYJ 220715Z AUTO 32004KT 10SM SCT047 BKN065 OVC095 13/12 A2998 RMK AO2
                 T01270118 =
2017-11-22 02:00 METAR KFYJ 220700Z AUTO 28011G16KT 5SM SCT048 BKN060 OVC075 13/12 A3000 RMK AO2
                 T01250116 =
2017-11-22 01:35 METAR KFYJ 220635Z AUTO 00000KT 10SM BKN060 BKN075 OVC090 13/12 A3000 RMK AO2
                 T01270115 =
2017-11-22 01:15 METAR KFYJ 220615Z AUTO 00000KT 10SM SCT041 OVC060 13/11 A3001 RMK AO2 T01310111
                 =
2017-11-22 00:55 METAR KFYJ 220555Z AUTO 20003KT 5SM SCT022 BKN042 OVC065 14/11 A3002 RMK AO2
                 P0003 60003 T01380113 10140 20129 401720010 =
2017-11-22 00:35 METAR KFYJ 220535Z AUTO 19005KT 7SM SCT070 SCT090 BKN110 13/10 A3003 RMK AO2
                 T01340104 =
2017-11-22 00:15 METAR KFYJ 220515Z AUTO 15005KT 10SM BKN070 BKN110 14/09 A3004 RMK AO2 T01370090
                 =
2017-11-21 23:55 METAR KFYJ 220455Z AUTO 14005KT 10SM BKN070 OVC110 14/09 A3005 RMK AO2 T01380088
                 =
2017-11-21 23:35 METAR KFYJ 220435Z AUTO 13003KT 10SM SCT065 BKN080 OVC110 14/09 A3005 RMK AO2
                 T01390087 =
2017-11-21 23:15 METAR KFYJ 220415Z AUTO 14004KT 10SM SCT060 BKN080 OVC110 14/09 A3006 RMK AO2
                 T01370085 =
2017-11-21 22:55 METAR KFYJ 220355Z AUTO 14004KT 10SM OVC080 14/09 A3006 RMK AO2 T01370085 =
2017-11-21 22:35 METAR KFYJ 220335Z AUTO 14004KT 10SM OVC080 14/09 A3007 RMK AO2 T01360085 =
2017-11-21 22:15 METAR KFYJ 220315Z AUTO 14003KT 10SM SCT080 BKN100 13/09 A3008 RMK AO2 T01320085
                 =
2017-11-21 21:55 METAR KFYJ 220255Z AUTO 15003KT 10SM BKN100 13/08 A3008 RMK AO2 T01300084 =
2017-11-21 21:35 METAR KFYJ 220235Z AUTO 13003KT 10SM SCT090 13/09 A3008 RMK AO2 T01330085 =
2017-11-21 21:15 METAR KFYJ 220215Z AUTO 15005KT 10SM BKN090 13/09 A3009 RMK AO2 T01320086 =
2017-11-21 20:55 METAR KFYJ 220155Z AUTO 15005KT 10SM BKN090 13/09 A3010 RMK AO2 T01300085 =
2017-11-21 20:35 METAR KFYJ 220135Z AUTO 15005KT 10SM SCT090 13/08 A3011 RMK AO2 T01320082 =
2017-11-21 20:15 METAR KFYJ 220115Z AUTO 16006KT 10SM CLR 14/08 A3011 RMK AO2 T01370082 =
2017-11-21 19:55 METAR KFYJ 220055Z AUTO 14006KT 10SM CLR 14/08 A3011 RMK AO2 T01350080 =
2017-11-21 19:35 METAR KFYJ 220035Z AUTO 15008KT 10SM CLR 14/08 A3011 RMK AO2 T01350077 =
2017-11-21 19:15 METAR KFYJ 220015Z AUTO 15007KT 10SM CLR 14/07 A3011 RMK AO2 T01400074 =
2017-11-21 18:55 METAR KFYJ 212355Z AUTO 15006KT 10SM CLR 13/07 A3011 RMK AO2 T01330073 10172
                 20133 =
2017-11-21 18:35 METAR KFYJ 212335Z AUTO 16006KT 10SM CLR 14/07 A3010 RMK AO2 T01350066 =
2017-11-21 18:15 METAR KFYJ 212315Z AUTO 15006KT 10SM CLR 14/06 A3010 RMK AO2 T01370061 =
2017-11-21 17:55 METAR KFYJ 212255Z AUTO 15005KT 10SM CLR 13/06 A3010 RMK AO2 T01330060 =
2017-11-21 17:35 METAR KFYJ 212235Z AUTO 15005KT 10SM CLR 14/06 A3011 RMK AO2 T01380060 =
2017-11-21 17:15 METAR KFYJ 212215Z AUTO 15007KT 10SM CLR 14/06 A3011 RMK AO2 T01410058 =
2017-11-21 16:55 METAR KFYJ 212155Z AUTO 15007KT 10SM CLR 15/06 A3011 RMK AO2 T01460055 =
2017-11-21 16:35 METAR KFYJ 212135Z AUTO 16007KT 10SM CLR 15/05 A3011 RMK AO2 T01540052 =
2017-11-21 16:15 METAR KFYJ 212115Z AUTO 17007KT 10SM CLR 16/05 A3011 RMK AO2 T01610049 =
2017-11-21 15:55 METAR KFYJ 212055Z AUTO 17008KT 10SM CLR 17/05 A3011 RMK AO2 T01660052 =
2017-11-21 15:35 METAR KFYJ 212035Z AUTO 19009KT 10SM CLR 17/05 A3011 RMK AO2 T01710053 =
2017-11-21 15:15 METAR KFYJ 212015Z AUTO 18006KT 10SM CLR 17/05 A3011 RMK AO2 T01720053 =
2017-11-21 14:55 METAR KFYJ 211955Z AUTO 19008KT 10SM CLR 17/05 A3012 RMK AO2 T01710050 =
2017-11-21 14:35 METAR KFYJ 211935Z AUTO 19009G14KT 10SM CLR 17/05 A3012 RMK AO2 T01710049 =
2017-11-21 14:15 METAR KFYJ 211915Z AUTO 19006KT 10SM CLR 17/05 A3012 RMK AO2 T01700046 =
2017-11-21 13:55 METAR KFYJ 211855Z AUTO 20008KT 10SM CLR 17/04 A3013 RMK AO2 T01710044 =
2017-11-21 13:35 METAR KFYJ 211835Z AUTO 18007KT 10SM CLR 17/04 A3014 RMK AO2 T01710044 =
2017-11-21 13:15 METAR KFYJ 211815Z AUTO 19008KT 10SM CLR 17/04 A3015 RMK AO2 T01670040 =
2017-11-21 12:55 METAR KFYJ 211755Z AUTO 18008KT 10SM CLR 16/03 A3016 RMK AO2 T01630033 10163
                 20044 =
2017-11-21 12:35 METAR KFYJ 211735Z AUTO 18008KT 10SM CLR 16/02 A3017 RMK AO2 T01600024 =
2017-11-21 12:15 METAR KFYJ 211715Z AUTO 18007KT 10SM CLR 16/02 A3018 RMK AO2 T01570020 =
2017-11-21 11:55 METAR KFYJ 211655Z AUTO 19006KT 10SM CLR 15/01 A3019 RMK AO2 T01500008 =
2017-11-21 11:35 METAR KFYJ 211635Z AUTO 21007KT 10SM CLR 15/01 A3021 RMK AO2 T01470006 =
2017-11-21 11:15 METAR KFYJ 211615Z AUTO 20008KT 10SM CLR 15/M01 A3023 RMK AO2 T01471007 =
2017-11-21 10:55 METAR KFYJ 211555Z AUTO 21010G16KT 10SM CLR 14/M02 A3023 RMK AO2 T01411020 =
2017-11-21 10:35 METAR KFYJ 211535Z AUTO 20007KT 10SM CLR 13/M02 A3024 RMK AO2 T01311016 =
2017-11-21 10:15 METAR KFYJ 211515Z AUTO 21008KT 10SM CLR 13/00 A3024 RMK AO2 T01251005 =
2017-11-21 09:55 METAR KFYJ 211455Z AUTO 21006KT 10SM CLR 11/00 A3025 RMK AO2 T01131001 =
2017-11-21 09:35 METAR KFYJ 211435Z AUTO 19003KT 10SM CLR 10/00 A3025 RMK AO2 T01001002 =
2017-11-21 09:15 METAR KFYJ 211415Z AUTO 18005KT 10SM CLR 09/00 A3025 RMK AO2 T00931001 =
2017-11-21 08:55 METAR KFYJ 211355Z AUTO 19005KT 10SM CLR 08/00 A3026 RMK AO2 T00810001 =
2017-11-21 08:30 METAR KFYJ 211330Z AUTO 20004KT 10SM CLR 07/00 A3026 RMK AO2 T00680000 =
2017-11-21 08:15 METAR KFYJ 211315Z AUTO 18003KT 10SM CLR 06/00 A3026 RMK AO2 T00610000 =
2017-11-21 07:55 METAR KFYJ 211255Z AUTO 17003KT 10SM CLR 05/00 A3025 RMK AO2 T00511001 =
2017-11-21 07:35 METAR KFYJ 211235Z AUTO 18004KT 10SM CLR 05/00 A3025 RMK AO2 T00451005 =
2017-11-21 07:15 METAR KFYJ 211215Z AUTO 19004KT 10SM CLR 05/00 A3024 RMK AO2 T00451005 =
2017-11-21 06:55 METAR KFYJ 211155Z AUTO 18005KT 10SM CLR 05/00 A3024 RMK AO2 T00451005 10050
                 20010 =
2017-11-21 06:35 METAR KFYJ 211135Z AUTO 18005KT 10SM CLR 04/00 A3024 RMK AO2 T00401004 =
2017-11-21 06:15 METAR KFYJ 211115Z AUTO 17004KT 10SM CLR 04/00 A3024 RMK AO2 T00411004 =
2017-11-21 05:55 METAR KFYJ 211055Z AUTO 17004KT 10SM CLR 04/00 A3024 RMK AO2 T00411002 =
2017-11-21 05:35 METAR KFYJ 211035Z AUTO 17005KT 10SM CLR 04/00 A3023 RMK AO2 T00421004 =
2017-11-21 05:15 METAR KFYJ 211015Z AUTO 17005KT 10SM CLR 04/00 A3023 RMK AO2 T00441004 =
2017-11-21 04:55 METAR KFYJ 210955Z AUTO 17005KT 10SM CLR 04/00 A3023 RMK AO2 T00441005 =
2017-11-21 04:35 METAR KFYJ 210935Z AUTO 17004KT 10SM CLR 04/00 A3023 RMK AO2 T00401005 =
2017-11-21 04:15 METAR KFYJ 210915Z AUTO 16005KT 10SM CLR 04/00 A3023 RMK AO2 T00401005 =

Support USWX by starting your Amazon purchase here.